sensor_id;sensor_type;location;lat;lon;timestamp;pressure;altitude;pressure_sealevel;temperature;humidity
77216;BME280;66210;53.282;9.864;2024-02-23T00:01:48;97410.09;;;8.36;79.95
77216;BME280;66210;53.282;9.864;2024-02-23T00:04:14;97405.91;;;8.30;78.52
77216;BME280;66210;53.282;9.864;2024-02-23T00:06:41;97410.09;;;8.36;78.11
77216;BME280;66210;53.282;9.864;2024-02-23T00:09:08;97428.69;;;8.32;77.10
77216;BME280;66210;53.282;9.864;2024-02-23T00:11:34;97416.03;;;8.30;77.96
77216;BME280;66210;53.282;9.864;2024-02-23T00:14:06;97425.28;;;8.27;77.43
77216;BME280;66210;53.282;9.864;2024-02-23T00:16:37;97431.16;;;8.15;78.26
77216;BME280;66210;53.282;9.864;2024-02-23T00:19:05;97458.13;;;8.10;78.46
77216;BME280;66210;53.282;9.864;2024-02-23T00:21:31;97458.13;;;8.10;78.86
77216;BME280;66210;53.282;9.864;2024-02-23T00:23:58;97454.72;;;8.05;79.57
77216;BME280;66210;53.282;9.864;2024-02-23T00:26:24;97459.81;;;8.09;79.34
77216;BME280;66210;53.282;9.864;2024-02-23T00:28:51;97468.22;;;8.04;79.31
77216;BME280;66210;53.282;9.864;2024-02-23T00:31:17;97453.06;;;8.11;80.90
77216;BME280;66210;53.282;9.864;2024-02-23T00:33:44;97451.34;;;8.04;79.49
77216;BME280;66210;53.282;9.864;2024-02-23T00:36:11;97473.28;;;8.11;80.02
77216;BME280;66210;53.282;9.864;2024-02-23T00:38:38;97468.22;;;8.07;79.27
77216;BME280;66210;53.282;9.864;2024-02-23T00:41:04;97477.50;;;8.06;80.63
77216;BME280;66210;53.282;9.864;2024-02-23T00:43:38;97493.50;;;8.07;79.28
77216;BME280;66210;53.282;9.864;2024-02-23T00:46:04;97487.59;;;8.03;81.29
77216;BME280;66210;53.282;9.864;2024-02-23T00:48:31;97498.53;;;7.99;82.30
77216;BME280;66210;53.282;9.864;2024-02-23T00:50:57;97499.34;;;7.92;83.30
77216;BME280;66210;53.282;9.864;2024-02-23T00:53:24;97511.97;;;7.87;82.54
77216;BME280;66210;53.282;9.864;2024-02-23T00:55:50;97527.16;;;7.95;83.76
77216;BME280;66210;53.282;9.864;2024-02-23T00:58:17;97531.38;;;7.91;82.27
77216;BME280;66210;53.282;9.864;2024-02-23T01:00:43;97533.91;;;7.93;82.55
77216;BME280;66210;53.282;9.864;2024-02-23T01:03:10;97536.41;;;7.88;82.69
77216;BME280;66210;53.282;9.864;2024-02-23T01:05:37;97549.84;;;7.78;82.52
77216;BME280;66210;53.282;9.864;2024-02-23T01:08:05;97571.78;;;7.85;84.08
77216;BME280;66210;53.282;9.864;2024-02-23T01:10:31;97583.56;;;7.80;85.65
77216;BME280;66210;53.282;9.864;2024-02-23T01:12:58;97609.47;;;7.55;89.91
77216;BME280;66210;53.282;9.864;2024-02-23T01:15:25;97621.16;;;7.42;90.68
77216;BME280;66210;53.282;9.864;2024-02-23T01:17:51;97626.00;;;7.17;91.88
77216;BME280;66210;53.282;9.864;2024-02-23T01:20:18;97625.75;;;6.93;92.28
77216;BME280;66210;53.282;9.864;2024-02-23T01:22:44;97638.22;;;6.76;93.38
77216;BME280;66210;53.282;9.864;2024-02-23T01:25:11;97653.31;;;6.71;94.19
77216;BME280;66210;53.282;9.864;2024-02-23T01:27:38;97642.28;;;6.63;93.49
77216;BME280;66210;53.282;9.864;2024-02-23T01:30:05;97653.97;;;6.56;93.66
77216;BME280;66210;53.282;9.864;2024-02-23T01:32:31;97670.75;;;6.54;93.92
77216;BME280;66210;53.282;9.864;2024-02-23T01:34:58;97671.53;;;6.49;93.52
77216;BME280;66210;53.282;9.864;2024-02-23T01:37:25;97689.97;;;6.44;94.27
77216;BME280;66210;53.282;9.864;2024-02-23T01:39:51;97702.56;;;6.43;93.71
77216;BME280;66210;53.282;9.864;2024-02-23T01:42:18;97720.16;;;6.37;92.25
77216;BME280;66210;53.282;9.864;2024-02-23T01:44:44;97719.34;;;6.41;92.81
77216;BME280;66210;53.282;9.864;2024-02-23T01:47:11;97735.31;;;6.40;93.28
77216;BME280;66210;53.282;9.864;2024-02-23T01:49:38;97744.56;;;6.41;93.43
77216;BME280;66210;53.282;9.864;2024-02-23T01:52:04;97768.00;;;6.34;92.98
77216;BME280;66210;53.282;9.864;2024-02-23T01:54:31;97766.34;;;6.36;92.62
77216;BME280;66210;53.282;9.864;2024-02-23T01:56:59;97786.56;;;6.37;92.30
77216;BME280;66210;53.282;9.864;2024-02-23T01:59:47;97793.19;;;6.32;92.91
77216;BME280;66210;53.282;9.864;2024-02-23T02:02:15;97793.09;;;6.28;92.63
77216;BME280;66210;53.282;9.864;2024-02-23T02:04:42;97809.91;;;6.26;92.17
77216;BME280;66210;53.282;9.864;2024-02-23T02:07:09;97823.41;;;6.29;93.36
77216;BME280;66210;53.282;9.864;2024-02-23T02:09:35;97823.22;;;6.18;93.20
77216;BME280;66210;53.282;9.864;2024-02-23T02:12:02;97844.31;;;6.22;93.37
77216;BME280;66210;53.282;9.864;2024-02-23T02:14:29;97863.56;;;6.18;92.83
77216;BME280;66210;53.282;9.864;2024-02-23T02:16:57;97855.03;;;6.12;92.76
77216;BME280;66210;53.282;9.864;2024-02-23T02:19:24;97883.63;;;6.12;92.61
77216;BME280;66210;53.282;9.864;2024-02-23T02:21:51;97869.13;;;6.00;92.97
77216;BME280;66210;53.282;9.864;2024-02-23T02:24:17;97889.28;;;5.99;93.59
77216;BME280;66210;53.282;9.864;2024-02-23T02:26:44;97886.72;;;5.97;94.64
77216;BME280;66210;53.282;9.864;2024-02-23T02:29:13;97896.53;;;5.85;95.25
77216;BME280;66210;53.282;9.864;2024-02-23T02:31:40;97917.38;;;5.76;97.76
77216;BME280;66210;53.282;9.864;2024-02-23T02:34:06;97920.66;;;5.72;97.82
77216;BME280;66210;53.282;9.864;2024-02-23T02:36:33;97926.47;;;5.68;97.89
77216;BME280;66210;53.282;9.864;2024-02-23T02:39:00;97934.69;;;5.59;98.34
77216;BME280;66210;53.282;9.864;2024-02-23T02:41:28;97953.03;;;5.54;98.73
77216;BME280;66210;53.282;9.864;2024-02-23T02:43:57;97959.63;;;5.49;98.57
77216;BME280;66210;53.282;9.864;2024-02-23T02:46:23;97967.94;;;5.45;99.54
77216;BME280;66210;53.282;9.864;2024-02-23T02:48:50;97971.09;;;5.34;99.25
77216;BME280;66210;53.282;9.864;2024-02-23T02:51:17;97971.88;;;5.32;100.00
77216;BME280;66210;53.282;9.864;2024-02-23T02:53:43;97977.59;;;5.26;99.91
77216;BME280;66210;53.282;9.864;2024-02-23T02:56:10;98004.56;;;5.30;100.00
77216;BME280;66210;53.282;9.864;2024-02-23T02:58:36;97996.84;;;5.24;100.00
77216;BME280;66210;53.282;9.864;2024-02-23T03:01:03;98017.88;;;5.26;100.00
77216;BME280;66210;53.282;9.864;2024-02-23T03:03:30;98005.03;;;5.15;100.00
77216;BME280;66210;53.282;9.864;2024-02-23T03:05:56;98014.91;;;5.06;100.00
77216;BME280;66210;53.282;9.864;2024-02-23T03:08:23;98025.16;;;5.14;100.00
77216;BME280;66210;53.282;9.864;2024-02-23T03:10:49;98047.88;;;5.17;100.00
77216;BME280;66210;53.282;9.864;2024-02-23T03:13:16;98039.38;;;5.12;100.00
77216;BME280;66210;53.282;9.864;2024-02-23T03:15:42;98050.34;;;5.14;100.00
77216;BME280;66210;53.282;9.864;2024-02-23T03:18:09;98065.44;;;5.15;100.00
77216;BME280;66210;53.282;9.864;2024-02-23T03:20:36;98075.41;;;5.11;100.00
77216;BME280;66210;53.282;9.864;2024-02-23T03:23:03;98081.06;;;5.02;100.00
77216;BME280;66210;53.282;9.864;2024-02-23T03:25:30;98089.47;;;5.03;100.00
77216;BME280;66210;53.282;9.864;2024-02-23T03:27:56;98095.03;;;4.91;100.00
77216;BME280;66210;53.282;9.864;2024-02-23T03:30:23;98087.34;;;4.85;100.00
77216;BME280;66210;53.282;9.864;2024-02-23T03:32:49;98096.75;;;4.92;100.00
77216;BME280;66210;53.282;9.864;2024-02-23T03:35:16;98102.50;;;4.88;100.00
77216;BME280;66210;53.282;9.864;2024-02-23T03:37:43;98104.19;;;4.87;100.00
77216;BME280;66210;53.282;9.864;2024-02-23T03:40:10;98101.56;;;4.84;100.00
77216;BME280;66210;53.282;9.864;2024-02-23T03:42:37;98112.28;;;4.77;100.00
77216;BME280;66210;53.282;9.864;2024-02-23T03:45:04;98124.09;;;4.79;100.00
77216;BME280;66210;53.282;9.864;2024-02-23T03:47:31;98127.31;;;4.74;100.00
77216;BME280;66210;53.282;9.864;2024-02-23T03:49:58;98122.28;;;4.74;100.00
77216;BME280;66210;53.282;9.864;2024-02-23T03:52:25;98120.59;;;4.74;100.00
77216;BME280;66210;53.282;9.864;2024-02-23T03:54:51;98129.69;;;4.69;100.00
77216;BME280;66210;53.282;9.864;2024-02-23T03:57:18;98139.75;;;4.69;100.00
77216;BME280;66210;53.282;9.864;2024-02-23T03:59:52;98140.66;;;4.71;100.00
77216;BME280;66210;53.282;9.864;2024-02-23T04:02:20;98132.88;;;4.64;100.00
77216;BME280;66210;53.282;9.864;2024-02-23T04:04:47;98154.09;;;4.72;100.00
77216;BME280;66210;53.282;9.864;2024-02-23T04:07:14;98145.59;;;4.68;100.00
77216;BME280;66210;53.282;9.864;2024-02-23T04:09:41;98152.28;;;4.68;100.00
77216;BME280;66210;53.282;9.864;2024-02-23T04:12:07;98159.88;;;4.69;100.00
77216;BME280;66210;53.282;9.864;2024-02-23T04:14:34;98166.72;;;4.75;100.00
77216;BME280;66210;53.282;9.864;2024-02-23T04:17:03;98170.88;;;4.73;100.00
77216;BME280;66210;53.282;9.864;2024-02-23T04:19:30;98185.28;;;4.78;99.63
77216;BME280;66210;53.282;9.864;2024-02-23T04:21:56;98182.53;;;4.69;99.39
77216;BME280;66210;53.282;9.864;2024-02-23T04:24:23;98179.91;;;4.66;98.39
77216;BME280;66210;53.282;9.864;2024-02-23T04:26:52;98190.84;;;4.67;98.53
77216;BME280;66210;53.282;9.864;2024-02-23T04:29:19;98197.44;;;4.63;98.14
77216;BME280;66210;53.282;9.864;2024-02-23T04:31:45;98192.47;;;4.65;98.34
77216;BME280;66210;53.282;9.864;2024-02-23T04:34:12;98200.00;;;4.65;97.91
77216;BME280;66210;53.282;9.864;2024-02-23T04:36:38;98193.16;;;4.61;98.26
77216;BME280;66210;53.282;9.864;2024-02-23T04:39:05;98194.00;;;4.61;98.07
77216;BME280;66210;53.282;9.864;2024-02-23T04:41:31;98203.31;;;4.64;97.92
77216;BME280;66210;53.282;9.864;2024-02-23T04:43:58;98207.63;;;4.68;98.34
77216;BME280;66210;53.282;9.864;2024-02-23T04:46:28;98216.84;;;4.67;98.29
77216;BME280;66210;53.282;9.864;2024-02-23T04:48:56;98219.16;;;4.61;97.93
77216;BME280;66210;53.282;9.864;2024-02-23T04:51:23;98223.47;;;4.65;96.91
77216;BME280;66210;53.282;9.864;2024-02-23T04:53:50;98232.78;;;4.68;97.41
77216;BME280;66210;53.282;9.864;2024-02-23T04:56:16;98235.34;;;4.69;97.54
77216;BME280;66210;53.282;9.864;2024-02-23T04:58:44;98241.28;;;4.71;96.14
77216;BME280;66210;53.282;9.864;2024-02-23T05:01:11;98233.72;;;4.71;96.70
77216;BME280;66210;53.282;9.864;2024-02-23T05:03:37;98242.13;;;4.72;96.45
77216;BME280;66210;53.282;9.864;2024-02-23T05:06:05;98250.63;;;4.77;96.67
77216;BME280;66210;53.282;9.864;2024-02-23T05:08:31;98252.38;;;4.78;95.02
77216;BME280;66210;53.282;9.864;2024-02-23T05:10:58;98248.13;;;4.77;95.48
77216;BME280;66210;53.282;9.864;2024-02-23T05:13:25;98247.34;;;4.78;96.04
77216;BME280;66210;53.282;9.864;2024-02-23T05:15:57;98239.53;;;4.70;96.28
77216;BME280;66210;53.282;9.864;2024-02-23T05:18:24;98260.81;;;4.80;95.09
77216;BME280;66210;53.282;9.864;2024-02-23T05:20:51;98248.19;;;4.78;94.89
77216;BME280;66210;53.282;9.864;2024-02-23T05:23:20;98259.97;;;4.81;94.15
77216;BME280;66210;53.282;9.864;2024-02-23T05:25:46;98261.59;;;4.79;94.37
77216;BME280;66210;53.282;9.864;2024-02-23T05:28:13;98270.75;;;4.75;93.37
77216;BME280;66210;53.282;9.864;2024-02-23T05:30:39;98264.06;;;4.77;92.42
77216;BME280;66210;53.282;9.864;2024-02-23T05:33:07;98277.41;;;4.75;92.53
77216;BME280;66210;53.282;9.864;2024-02-23T05:35:34;98273.06;;;4.69;92.15
77216;BME280;66210;53.282;9.864;2024-02-23T05:38:01;98278.75;;;4.64;91.71
77216;BME280;66210;53.282;9.864;2024-02-23T05:40:28;98295.56;;;4.65;92.67
77216;BME280;66210;53.282;9.864;2024-02-23T05:42:54;98298.88;;;4.64;92.07
77216;BME280;66210;53.282;9.864;2024-02-23T05:45:21;98292.09;;;4.61;92.27
77216;BME280;66210;53.282;9.864;2024-02-23T05:47:49;98294.53;;;4.58;92.98
77216;BME280;66210;53.282;9.864;2024-02-23T05:50:15;98292.00;;;4.58;93.49
77216;BME280;66210;53.282;9.864;2024-02-23T05:52:42;98301.38;;;4.62;93.74
77216;BME280;66210;53.282;9.864;2024-02-23T05:55:09;98311.38;;;4.61;93.43
77216;BME280;66210;53.282;9.864;2024-02-23T05:57:35;98318.91;;;4.61;93.01
77216;BME280;66210;53.282;9.864;2024-02-23T06:00:04;98312.91;;;4.55;93.76
77216;BME280;66210;53.282;9.864;2024-02-23T06:02:30;98317.78;;;4.51;93.92
77216;BME280;66210;53.282;9.864;2024-02-23T06:04:57;98326.06;;;4.48;94.19
77216;BME280;66210;53.282;9.864;2024-02-23T06:07:24;98321.03;;;4.48;93.97
77216;BME280;66210;53.282;9.864;2024-02-23T06:09:56;98329.34;;;4.46;94.52
77216;BME280;66210;53.282;9.864;2024-02-23T06:12:23;98332.53;;;4.40;95.21
77216;BME280;66210;53.282;9.864;2024-02-23T06:14:50;98333.03;;;4.30;95.24
77216;BME280;66210;53.282;9.864;2024-02-23T06:17:17;98355.09;;;4.38;95.66
77216;BME280;66210;53.282;9.864;2024-02-23T06:19:44;98340.63;;;4.31;95.36
77216;BME280;66210;53.282;9.864;2024-02-23T06:22:11;98361.72;;;4.35;95.88
77216;BME280;66210;53.282;9.864;2024-02-23T06:24:38;98350.63;;;4.30;95.53
77216;BME280;66210;53.282;9.864;2024-02-23T06:27:05;98347.34;;;4.32;95.37
77216;BME280;66210;53.282;9.864;2024-02-23T06:29:31;98358.28;;;4.33;95.78
77216;BME280;66210;53.282;9.864;2024-02-23T06:31:58;98352.16;;;4.25;96.09
77216;BME280;66210;53.282;9.864;2024-02-23T06:34:27;98360.69;;;4.30;96.41
77216;BME280;66210;53.282;9.864;2024-02-23T06:36:54;98362.28;;;4.28;96.91
77216;BME280;66210;53.282;9.864;2024-02-23T06:39:20;98363.19;;;4.30;96.85
77216;BME280;66210;53.282;9.864;2024-02-23T06:41:47;98363.81;;;4.23;96.70
77216;BME280;66210;53.282;9.864;2024-02-23T06:44:14;98360.31;;;4.18;96.69
77216;BME280;66210;53.282;9.864;2024-02-23T06:46:40;98378.88;;;4.23;96.37
77216;BME280;66210;53.282;9.864;2024-02-23T06:49:07;98378.81;;;4.21;96.35
77216;BME280;66210;53.282;9.864;2024-02-23T06:51:34;98376.38;;;4.23;96.69
77216;BME280;66210;53.282;9.864;2024-02-23T06:54:01;98388.09;;;4.22;97.17
77216;BME280;66210;53.282;9.864;2024-02-23T06:56:30;98382.09;;;4.19;96.79
77216;BME280;66210;53.282;9.864;2024-02-23T06:58:57;98397.34;;;4.23;96.72
77216;BME280;66210;53.282;9.864;2024-02-23T07:01:24;98388.72;;;4.16;96.14
77216;BME280;66210;53.282;9.864;2024-02-23T07:03:51;98405.91;;;4.28;95.36
77216;BME280;66210;53.282;9.864;2024-02-23T07:06:18;98408.56;;;4.33;95.48
77216;BME280;66210;53.282;9.864;2024-02-23T07:08:45;98419.53;;;4.35;95.60
77216;BME280;66210;53.282;9.864;2024-02-23T07:11:12;98415.34;;;4.35;93.90
77216;BME280;66210;53.282;9.864;2024-02-23T07:13:42;98428.16;;;4.43;94.20
77216;BME280;66210;53.282;9.864;2024-02-23T07:16:09;98432.53;;;4.49;93.32
77216;BME280;66210;53.282;9.864;2024-02-23T07:18:36;98419.16;;;4.50;93.46
77216;BME280;66210;53.282;9.864;2024-02-23T07:21:02;98436.19;;;4.58;93.00
77216;BME280;66210;53.282;9.864;2024-02-23T07:23:29;98428.75;;;4.62;92.30
77216;BME280;66210;53.282;9.864;2024-02-23T07:25:56;98439.84;;;4.68;92.49
77216;BME280;66210;53.282;9.864;2024-02-23T07:28:22;98427.28;;;4.68;91.60
77216;BME280;66210;53.282;9.864;2024-02-23T07:30:49;98424.88;;;4.71;90.92
77216;BME280;66210;53.282;9.864;2024-02-23T07:33:16;98443.84;;;4.87;91.05
77216;BME280;66210;53.282;9.864;2024-02-23T07:35:43;98397.09;;;4.68;90.26
77216;BME280;66210;53.282;9.864;2024-02-23T07:38:09;98450.00;;;4.97;89.07
77216;BME280;66210;53.282;9.864;2024-02-23T07:40:36;98446.63;;;4.96;87.91
77216;BME280;66210;53.282;9.864;2024-02-23T07:43:03;98448.44;;;5.00;89.42
77216;BME280;66210;53.282;9.864;2024-02-23T07:45:29;98449.63;;;5.12;87.68
77216;BME280;66210;53.282;9.864;2024-02-23T07:47:56;98465.50;;;5.11;86.88
77216;BME280;66210;53.282;9.864;2024-02-23T07:50:22;98465.66;;;5.15;86.65
77216;BME280;66210;53.282;9.864;2024-02-23T07:52:49;98474.13;;;5.17;85.79
77216;BME280;66210;53.282;9.864;2024-02-23T07:55:16;98478.44;;;5.21;86.60
77216;BME280;66210;53.282;9.864;2024-02-23T07:57:43;98470.03;;;5.21;87.30
77216;BME280;66210;53.282;9.864;2024-02-23T08:00:10;98476.81;;;5.24;87.43
77216;BME280;66210;53.282;9.864;2024-02-23T08:02:36;98497.94;;;5.29;88.00
77216;BME280;66210;53.282;9.864;2024-02-23T08:05:03;98481.94;;;5.27;86.01
77216;BME280;66210;53.282;9.864;2024-02-23T08:07:30;98489.59;;;5.30;86.06
77216;BME280;66210;53.282;9.864;2024-02-23T08:09:57;98489.69;;;5.33;85.94
77216;BME280;66210;53.282;9.864;2024-02-23T08:12:25;98489.81;;;5.37;85.36
77216;BME280;66210;53.282;9.864;2024-02-23T08:14:52;98497.50;;;5.40;84.53
77216;BME280;66210;53.282;9.864;2024-02-23T08:17:20;98505.97;;;5.44;85.05
77216;BME280;66210;53.282;9.864;2024-02-23T08:19:46;98502.69;;;5.47;83.71
77216;BME280;66210;53.282;9.864;2024-02-23T08:22:13;98507.84;;;5.50;83.80
77216;BME280;66210;53.282;9.864;2024-02-23T08:24:40;98518.06;;;5.56;84.61
77216;BME280;66210;53.282;9.864;2024-02-23T08:27:06;98517.34;;;5.58;85.07
77216;BME280;66210;53.282;9.864;2024-02-23T08:29:33;98524.97;;;5.61;82.94
77216;BME280;66210;53.282;9.864;2024-02-23T08:32:00;98524.28;;;5.67;84.54
77216;BME280;66210;53.282;9.864;2024-02-23T08:34:26;98520.00;;;5.63;85.06
77216;BME280;66210;53.282;9.864;2024-02-23T08:36:53;98529.38;;;5.69;85.23
77216;BME280;66210;53.282;9.864;2024-02-23T08:39:20;98517.75;;;5.72;84.88
77216;BME280;66210;53.282;9.864;2024-02-23T08:41:48;98527.09;;;5.76;85.40
77216;BME280;66210;53.282;9.864;2024-02-23T08:44:15;98526.53;;;5.87;85.04
77216;BME280;66210;53.282;9.864;2024-02-23T08:46:41;98529.97;;;5.89;83.31
77216;BME280;66210;53.282;9.864;2024-02-23T08:49:08;98519.13;;;5.91;82.53
77216;BME280;66210;53.282;9.864;2024-02-23T08:51:34;98527.75;;;5.98;83.59
77216;BME280;66210;53.282;9.864;2024-02-23T08:54:02;98535.34;;;5.99;82.74
77216;BME280;66210;53.282;9.864;2024-02-23T08:56:31;98526.16;;;6.01;82.32
77216;BME280;66210;53.282;9.864;2024-02-23T08:58:58;98536.38;;;6.06;82.38
77216;BME280;66210;53.282;9.864;2024-02-23T09:01:25;98538.97;;;6.08;82.15
77216;BME280;66210;53.282;9.864;2024-02-23T09:03:51;98543.25;;;6.12;82.91
77216;BME280;66210;53.282;9.864;2024-02-23T09:06:18;98546.59;;;6.11;81.11
77216;BME280;66210;53.282;9.864;2024-02-23T09:08:46;98554.34;;;6.17;82.32
77216;BME280;66210;53.282;9.864;2024-02-23T09:11:12;98551.97;;;6.23;81.46
77216;BME280;66210;53.282;9.864;2024-02-23T09:13:41;98568.25;;;6.34;80.87
77216;BME280;66210;53.282;9.864;2024-02-23T09:16:09;98565.78;;;6.36;80.58
77216;BME280;66210;53.282;9.864;2024-02-23T09:18:36;98570.28;;;6.48;80.04
77216;BME280;66210;53.282;9.864;2024-02-23T09:21:03;98585.59;;;6.54;78.18
77216;BME280;66210;53.282;9.864;2024-02-23T09:23:30;98578.88;;;6.54;78.52
77216;BME280;66210;53.282;9.864;2024-02-23T09:25:57;98588.34;;;6.61;79.01
77216;BME280;66210;53.282;9.864;2024-02-23T09:28:23;98590.06;;;6.62;76.87
77216;BME280;66210;53.282;9.864;2024-02-23T09:30:50;98594.31;;;6.65;77.71
77216;BME280;66210;53.282;9.864;2024-02-23T09:33:17;98607.06;;;6.70;77.64
77216;BME280;66210;53.282;9.864;2024-02-23T09:35:44;98596.16;;;6.71;77.65
77216;BME280;66210;53.282;9.864;2024-02-23T09:38:10;98607.91;;;6.70;76.74
77216;BME280;66210;53.282;9.864;2024-02-23T09:40:38;98619.78;;;6.73;76.96
77216;BME280;66210;53.282;9.864;2024-02-23T09:43:07;98633.31;;;6.76;78.68
77216;BME280;66210;53.282;9.864;2024-02-23T09:45:34;98624.13;;;6.78;77.44
77216;BME280;66210;53.282;9.864;2024-02-23T09:48:02;98628.44;;;6.82;77.94
77216;BME280;66210;53.282;9.864;2024-02-23T09:50:30;98641.97;;;6.86;77.93
77216;BME280;66210;53.282;9.864;2024-02-23T09:52:58;98648.94;;;6.95;78.87
77216;BME280;66210;53.282;9.864;2024-02-23T09:55:25;98638.06;;;6.96;76.85
77216;BME280;66210;53.282;9.864;2024-02-23T09:57:52;98648.28;;;7.00;75.35
77216;BME280;66210;53.282;9.864;2024-02-23T10:00:23;98647.56;;;7.06;75.56
77216;BME280;66210;53.282;9.864;2024-02-23T10:02:50;98641.00;;;7.13;75.58
77216;BME280;66210;53.282;9.864;2024-02-23T10:05:23;98646.28;;;7.22;75.75
77216;BME280;66210;53.282;9.864;2024-02-23T10:07:58;98648.13;;;7.27;75.16
77216;BME280;66210;53.282;9.864;2024-02-23T10:10:30;98652.50;;;7.33;75.54
77216;BME280;66210;53.282;9.864;2024-02-23T10:12:59;98663.47;;;7.35;74.11
77216;BME280;66210;53.282;9.864;2024-02-23T10:15:29;98661.94;;;7.40;74.73
77216;BME280;66210;53.282;9.864;2024-02-23T10:17:56;98664.41;;;7.39;74.03
77216;BME280;66210;53.282;9.864;2024-02-23T10:20:23;98670.91;;;7.29;73.24
77216;BME280;66210;53.282;9.864;2024-02-23T10:22:50;98668.41;;;7.31;73.11
77216;BME280;66210;53.282;9.864;2024-02-23T10:25:17;98678.47;;;7.29;73.25
77216;BME280;66210;53.282;9.864;2024-02-23T10:27:43;98685.16;;;7.27;72.92
77216;BME280;66210;53.282;9.864;2024-02-23T10:30:10;98685.16;;;7.27;73.50
77216;BME280;66210;53.282;9.864;2024-02-23T10:32:41;98671.63;;;7.25;74.13
77216;BME280;66210;53.282;9.864;2024-02-23T10:35:15;98684.44;;;7.33;74.51
77216;BME280;66210;53.282;9.864;2024-02-23T10:37:44;98684.50;;;7.34;72.31
77216;BME280;66210;53.282;9.864;2024-02-23T10:40:12;98681.97;;;7.34;73.91
77216;BME280;66210;53.282;9.864;2024-02-23T10:42:41;98686.41;;;7.43;73.95
77216;BME280;66210;53.282;9.864;2024-02-23T10:45:17;98680.47;;;7.41;74.30
77216;BME280;66210;53.282;9.864;2024-02-23T10:47:44;98686.47;;;7.46;73.99
77216;BME280;66210;53.282;9.864;2024-02-23T10:50:12;98689.09;;;7.49;71.16
77216;BME280;66210;53.282;9.864;2024-02-23T10:52:42;98698.31;;;7.48;71.34
77216;BME280;66210;53.282;9.864;2024-02-23T10:55:10;98702.66;;;7.53;72.13
77216;BME280;66210;53.282;9.864;2024-02-23T10:57:37;98690.00;;;7.51;72.36
77216;BME280;66210;53.282;9.864;2024-02-23T11:00:06;98690.16;;;7.59;71.78
77216;BME280;66210;53.282;9.864;2024-02-23T11:02:40;98691.97;;;7.64;71.28
77216;BME280;66210;53.282;9.864;2024-02-23T11:05:08;98685.34;;;7.68;72.47
77216;BME280;66210;53.282;9.864;2024-02-23T11:07:39;98699.81;;;7.74;70.68
77216;BME280;66210;53.282;9.864;2024-02-23T11:10:06;98700.63;;;7.73;70.50
77216;BME280;66210;53.282;9.864;2024-02-23T11:12:35;98683.03;;;7.77;71.62
77216;BME280;66210;53.282;9.864;2024-02-23T11:15:02;98690.56;;;7.76;71.87
77216;BME280;66210;53.282;9.864;2024-02-23T11:17:31;98683.06;;;7.79;71.04
77216;BME280;66210;53.282;9.864;2024-02-23T11:20:03;98687.34;;;7.81;71.03
77216;BME280;66210;53.282;9.864;2024-02-23T11:22:32;98693.34;;;7.85;68.56
77216;BME280;66210;53.282;9.864;2024-02-23T11:25:06;98686.75;;;7.91;70.09
77216;BME280;66210;53.282;9.864;2024-02-23T11:27:38;98685.03;;;7.90;70.36
77216;BME280;66210;53.282;9.864;2024-02-23T11:30:09;98675.81;;;7.93;68.59
77216;BME280;66210;53.282;9.864;2024-02-23T11:32:41;98683.28;;;7.88;67.93
77216;BME280;66210;53.282;9.864;2024-02-23T11:35:14;98677.50;;;7.92;70.16
77216;BME280;66210;53.282;9.864;2024-02-23T11:37:59;98674.06;;;7.90;68.61
77216;BME280;66210;53.282;9.864;2024-02-23T11:40:31;98683.28;;;7.88;67.32
77216;BME280;66210;53.282;9.864;2024-02-23T11:42:59;98679.75;;;7.81;66.54
77216;BME280;66210;53.282;9.864;2024-02-23T11:45:30;98665.22;;;7.73;67.89
77216;BME280;66210;53.282;9.864;2024-02-23T11:47:57;98688.03;;;7.76;69.68
77216;BME280;66210;53.282;9.864;2024-02-23T11:50:24;98688.03;;;7.74;68.84
77216;BME280;66210;53.282;9.864;2024-02-23T11:52:51;98677.88;;;7.73;69.03
77216;BME280;66210;53.282;9.864;2024-02-23T11:55:21;98685.56;;;7.77;67.93
77216;BME280;66210;53.282;9.864;2024-02-23T11:57:50;98679.81;;;7.84;68.23
77216;BME280;66210;53.282;9.864;2024-02-23T12:00:30;98675.59;;;7.83;68.39
77216;BME280;66210;53.282;9.864;2024-02-23T12:02:57;98675.56;;;7.82;68.18
77216;BME280;66210;53.282;9.864;2024-02-23T12:05:24;98682.34;;;7.84;67.59
77216;BME280;66210;53.282;9.864;2024-02-23T12:07:50;98681.56;;;7.85;67.39
77216;BME280;66210;53.282;9.864;2024-02-23T12:10:17;98675.66;;;7.86;68.30
77216;BME280;66210;53.282;9.864;2024-02-23T12:12:44;98670.72;;;7.91;68.35
77216;BME280;66210;53.282;9.864;2024-02-23T12:15:11;98666.66;;;7.98;68.49
77216;BME280;66210;53.282;9.864;2024-02-23T12:17:46;98678.59;;;8.03;68.17
77216;BME280;66210;53.282;9.864;2024-02-23T12:20:13;98672.88;;;8.12;67.74
77216;BME280;66210;53.282;9.864;2024-02-23T12:22:43;98684.75;;;8.15;68.51
77216;BME280;66210;53.282;9.864;2024-02-23T12:25:12;98677.25;;;8.19;68.15
77216;BME280;66210;53.282;9.864;2024-02-23T12:27:38;98670.38;;;8.12;67.54
77216;BME280;66210;53.282;9.864;2024-02-23T12:30:05;98666.94;;;8.11;66.56
77216;BME280;66210;53.282;9.864;2024-02-23T12:32:32;98673.84;;;8.17;67.53
77216;BME280;66210;53.282;9.864;2024-02-23T12:34:59;98670.47;;;8.17;67.62
77216;BME280;66210;53.282;9.864;2024-02-23T12:37:26;98676.38;;;8.17;68.75
77216;BME280;66210;53.282;9.864;2024-02-23T12:39:52;98685.75;;;8.21;65.22
77216;BME280;66210;53.282;9.864;2024-02-23T12:42:19;98681.53;;;8.22;66.91
77216;BME280;66210;53.282;9.864;2024-02-23T12:44:46;98676.41;;;8.19;66.64
77216;BME280;66210;53.282;9.864;2024-02-23T12:47:13;98680.59;;;8.18;66.23
77216;BME280;66210;53.282;9.864;2024-02-23T12:49:40;98684.00;;;8.20;66.69
77216;BME280;66210;53.282;9.864;2024-02-23T12:52:11;98672.25;;;8.21;67.80
77216;BME280;66210;53.282;9.864;2024-02-23T12:54:38;98674.78;;;8.21;66.24
77216;BME280;66210;53.282;9.864;2024-02-23T12:57:05;98690.78;;;8.21;67.28
77216;BME280;66210;53.282;9.864;2024-02-23T12:59:31;98689.84;;;8.16;65.79
77216;BME280;66210;53.282;9.864;2024-02-23T13:01:58;98695.91;;;8.24;66.74
77216;BME280;66210;53.282;9.864;2024-02-23T13:04:24;98704.50;;;8.31;65.58
77216;BME280;66210;53.282;9.864;2024-02-23T13:06:51;98702.81;;;8.31;66.58
77216;BME280;66210;53.282;9.864;2024-02-23T13:09:18;98694.47;;;8.36;66.03
77216;BME280;66210;53.282;9.864;2024-02-23T13:11:44;98706.19;;;8.30;63.66